createdAt,value
2023-05-14T00:01:33.187Z,98600.28
2023-05-14T00:06:35.008Z,98599.09
2023-05-14T00:11:36.895Z,98586.19
2023-05-14T00:16:38.762Z,98580.28
2023-05-14T00:21:40.911Z,98583.34
2023-05-14T00:26:42.764Z,98577.09
2023-05-14T00:31:44.896Z,98568.53
2023-05-14T00:36:46.808Z,98559.19
2023-05-14T00:41:48.668Z,98567.81
2023-05-14T00:46:50.704Z,98555.38
2023-05-14T00:51:53.550Z,98553.44
2023-05-14T00:56:56.525Z,98545.22
2023-05-14T01:01:58.393Z,98552.97
2023-05-14T01:07:21.416Z,98551.75
2023-05-14T01:13:04.209Z,98544.28
2023-05-14T01:18:11.389Z,98543.47
2023-05-14T01:23:13.303Z,98550.94
2023-05-14T01:28:19.448Z,98548.94
2023-05-14T01:33:24.926Z,98544.25
2023-05-14T01:38:31.757Z,98549.28
2023-05-14T01:43:34.955Z,98546.53
2023-05-14T01:48:37.996Z,98541.09
2023-05-14T01:53:39.826Z,98534.84
2023-05-14T01:58:41.649Z,98528.53
2023-05-14T02:03:43.527Z,98542.44
2023-05-14T02:08:45.439Z,98542.66
2023-05-14T02:13:47.340Z,98544.53
2023-05-14T02:18:49.290Z,98547.06
2023-05-14T02:23:51.298Z,98533.63
2023-05-14T02:28:53.144Z,98539.75
2023-05-14T02:33:55.098Z,98532.28
2023-05-14T02:38:59.355Z,98529.78
2023-05-14T02:44:01.180Z,98537.28
2023-05-14T02:49:03.350Z,98529.81
2023-05-14T02:54:05.568Z,98527.03
2023-05-14T02:59:07.444Z,98527.88
2023-05-14T03:04:09.950Z,98519.41
2023-05-14T03:09:11.860Z,98520.22
2023-05-14T03:14:13.789Z,98519.50
2023-05-14T03:19:15.711Z,98515.56
2023-05-14T03:24:18.972Z,98526.09
2023-05-14T03:29:20.903Z,98518.66
2023-05-14T03:34:22.937Z,98518.66
2023-05-14T03:39:24.826Z,98509.34
2023-05-14T03:44:26.723Z,98500.78
2023-05-14T03:49:28.628Z,98503.88
2023-05-14T03:54:32.063Z,98503.44
2023-05-14T03:59:35.018Z,98497.59
2023-05-14T04:04:36.981Z,98502.31
2023-05-14T04:09:38.991Z,98492.22
2023-05-14T04:14:40.853Z,98498.50
2023-05-14T04:19:42.989Z,98497.09
2023-05-14T04:24:44.807Z,98488.63
2023-05-14T04:29:47.046Z,98490.19
2023-05-14T04:34:48.858Z,98492.53
2023-05-14T04:39:50.926Z,98476.19
2023-05-14T04:44:52.873Z,98481.75
2023-05-14T04:49:54.716Z,98465.06
2023-05-14T04:54:57.038Z,98472.50
2023-05-14T04:59:58.873Z,98463.94
2023-05-14T05:05:00.949Z,98475.31
2023-05-14T05:10:03.058Z,98463.31
2023-05-14T05:15:05.729Z,98468.13
2023-05-14T05:20:09.861Z,98454.88
2023-05-14T05:25:13.037Z,98460.34
2023-05-14T05:30:14.960Z,98461.16
2023-05-14T05:35:16.792Z,98453.88
2023-05-14T05:40:19.175Z,98452.03
2023-05-14T05:45:21.106Z,98454.50
2023-05-14T05:50:23.244Z,98452.28
2023-05-14T05:55:25.856Z,98441.53
2023-05-14T06:00:27.738Z,98446.00
2023-05-14T06:05:29.657Z,98448.13
2023-05-14T06:10:31.717Z,98452.16
2023-05-14T06:15:33.642Z,98454.63
2023-05-14T06:20:35.586Z,98456.66
2023-05-14T06:25:37.435Z,98451.66
2023-05-14T06:30:39.307Z,98453.22
2023-05-14T06:35:41.183Z,98453.22
2023-05-14T06:40:43.006Z,98448.47
2023-05-14T06:45:48.373Z,98444.88
2023-05-14T06:50:50.367Z,98441.31
2023-05-14T06:55:52.311Z,98437.31
2023-05-14T07:00:54.267Z,98433.41
2023-05-14T07:05:56.111Z,98433.34
2023-05-14T07:10:58.308Z,98426.94
2023-05-14T07:16:00.169Z,98424.84
2023-05-14T07:21:02.069Z,98430.66
2023-05-14T07:26:05.889Z,98412.88
2023-05-14T07:31:09.299Z,98414.69
2023-05-14T07:36:11.333Z,98410.63
2023-05-14T07:41:13.188Z,98404.16
2023-05-14T07:46:15.173Z,98397.75
2023-05-14T07:51:17.110Z,98405.78
2023-05-14T07:56:19.006Z,98408.44
2023-05-14T08:01:20.896Z,98402.72
2023-05-14T08:06:23.868Z,98395.50
2023-05-14T08:11:26.311Z,98403.19
2023-05-14T08:16:28.514Z,98397.56
2023-05-14T08:21:30.448Z,98394.22
2023-05-14T08:26:33.566Z,98390.97
2023-05-14T08:31:35.739Z,98394.25
2023-05-14T08:36:38.818Z,98386.25
2023-05-14T08:41:41.040Z,98383.91
2023-05-14T08:46:43.400Z,98393.38
2023-05-14T08:51:49.003Z,98379.53
2023-05-14T08:56:52.480Z,98377.97
2023-05-14T09:01:56.242Z,98381.81
2023-05-14T09:07:01.563Z,98374.66
2023-05-14T09:12:03.668Z,98382.16
2023-05-14T09:17:05.871Z,98375.75
2023-05-14T09:22:15.088Z,98372.94
2023-05-14T09:27:20.913Z,98357.41
2023-05-14T09:32:22.860Z,98365.09
2023-05-14T09:37:26.153Z,98357.44
2023-05-14T09:42:28.609Z,98343.47
2023-05-14T09:47:32.036Z,98340.13
2023-05-14T09:52:34.631Z,98330.13
2023-05-14T09:57:36.804Z,98320.97
2023-05-14T10:02:41.414Z,98311.88
2023-05-14T10:07:48.312Z,98309.84
2023-05-14T10:12:58.848Z,98306.00
2023-05-14T10:18:03.788Z,98308.94
2023-05-14T10:23:07.720Z,98303.91
2023-05-14T10:28:09.943Z,98297.50
2023-05-14T10:33:14.570Z,98294.72
2023-05-14T10:38:16.543Z,98295.59
2023-05-14T10:43:19.948Z,98280.19
2023-05-14T10:48:22.337Z,98291.16
2023-05-14T10:53:36.189Z,98292.16
2023-05-14T10:58:39.395Z,98279.16
2023-05-14T11:03:46.507Z,98273.88
2023-05-14T11:08:51.450Z,98267.09
2023-05-14T11:13:54.103Z,98259.97
2023-05-14T11:19:03.991Z,98258.91
2023-05-14T11:24:07.487Z,98255.59
2023-05-14T11:29:10.602Z,98256.22
2023-05-14T11:34:12.489Z,98245.38
2023-05-14T11:39:20.643Z,98242.94
2023-05-14T11:44:22.819Z,98240.31
2023-05-14T11:49:25.887Z,98224.31
2023-05-14T11:54:31.920Z,98229.56
2023-05-14T11:59:34.215Z,98228.97
2023-05-14T12:04:36.936Z,98227.91
2023-05-14T12:09:49.495Z,98210.47
2023-05-14T12:14:53.176Z,98221.38
2023-05-14T12:19:59.296Z,98206.44
2023-05-14T12:25:01.940Z,98203.16
2023-05-14T12:30:20.493Z,98198.66
2023-05-14T12:35:23.741Z,98198.13
2023-05-14T12:40:26.566Z,98187.28
2023-05-14T12:45:30.135Z,98176.41
2023-05-14T12:50:32.584Z,98184.50
2023-05-14T12:55:34.712Z,98179.88
2023-05-14T13:00:36.869Z,98183.91
2023-05-14T13:05:38.761Z,98173.81
2023-05-14T13:10:41.154Z,98165.19
2023-05-14T13:15:43.203Z,98174.81
2023-05-14T13:20:47.485Z,98168.25
2023-05-14T13:25:50.037Z,98177.38
2023-05-14T13:31:08.974Z,98165.66
2023-05-14T13:36:13.497Z,98158.81
2023-05-14T13:41:15.423Z,98170.09
2023-05-14T13:46:17.433Z,98170.56
2023-05-14T13:51:19.408Z,98166.41
2023-05-14T13:56:21.729Z,98170.34
2023-05-14T14:01:23.775Z,98171.78
2023-05-14T14:06:27.519Z,98165.56
2023-05-14T14:11:29.510Z,98154.22
2023-05-14T14:16:31.589Z,98149.41
2023-05-14T14:21:35.326Z,98135.84
2023-05-14T14:26:37.330Z,98128.56
2023-05-14T14:31:39.425Z,98120.56
2023-05-14T14:36:41.456Z,98118.66
2023-05-14T14:41:43.362Z,98115.31
2023-05-14T14:46:45.284Z,98109.75
2023-05-14T14:51:47.300Z,98115.84
2023-05-14T14:56:52.446Z,98108.78
2023-05-14T15:01:54.508Z,98111.91
2023-05-14T15:06:56.499Z,98102.41
2023-05-14T15:11:58.616Z,98095.72
2023-05-14T15:17:00.686Z,98106.41
2023-05-14T15:22:02.700Z,98097.19
2023-05-14T15:27:05.210Z,98097.44
2023-05-14T15:32:07.806Z,98080.81
2023-05-14T15:37:10.329Z,98076.38
2023-05-14T15:42:13.043Z,98073.97
2023-05-14T15:47:14.959Z,98074.44
2023-05-14T15:52:16.982Z,98081.03
2023-05-14T15:57:20.065Z,98081.53
2023-05-14T16:02:22.556Z,98080.16
2023-05-14T16:07:26.540Z,98077.25
2023-05-14T16:12:29.135Z,98074.38
2023-05-14T16:17:33.160Z,98095.72
2023-05-14T16:22:36.523Z,98086.09
2023-05-14T16:27:39.298Z,98086.44
2023-05-14T16:32:42.218Z,98102.06
2023-05-14T16:37:44.537Z,98096.84
2023-05-14T16:42:49.293Z,98098.56
2023-05-14T16:47:51.778Z,98101.78
2023-05-14T16:52:54.375Z,98097.22
2023-05-14T16:57:56.777Z,98085.63
2023-05-14T17:02:59.155Z,98081.00
2023-05-14T17:08:02.293Z,98079.53
2023-05-14T17:13:06.166Z,98074.47
2023-05-14T17:18:08.766Z,98077.22
2023-05-14T17:23:11.391Z,98084.31
2023-05-14T17:28:13.928Z,98077.69
2023-05-14T17:33:15.969Z,98081.25
2023-05-14T17:38:17.939Z,98075.38
2023-05-14T17:43:19.791Z,98074.28
2023-05-14T17:48:23.024Z,98074.28
2023-05-14T17:53:25.019Z,98078.97
2023-05-14T17:58:27.727Z,98076.66
2023-05-14T18:03:29.751Z,98076.69
2023-05-14T18:08:31.761Z,98074.41
2023-05-14T18:13:33.734Z,98069.72
2023-05-14T18:18:36.371Z,98070.53
2023-05-14T18:23:38.849Z,98071.38
2023-05-14T18:28:40.893Z,98076.94
2023-05-14T18:33:42.750Z,98080.22
2023-05-14T18:38:44.603Z,98085.78
2023-05-14T18:43:46.746Z,98085.91
2023-05-14T18:48:49.430Z,98086.06
2023-05-14T18:53:52.271Z,98086.56
2023-05-14T18:58:54.605Z,98093.28
2023-05-14T19:03:56.872Z,98098.03
2023-05-14T19:08:59.535Z,98094.94
2023-05-14T19:14:01.440Z,98088.72
2023-05-14T19:19:03.623Z,98087.16
2023-05-14T19:24:06.008Z,98091.81
2023-05-14T19:29:08.613Z,98094.94
2023-05-14T19:34:11.377Z,98094.94
2023-05-14T19:39:13.380Z,98090.66
2023-05-14T19:44:15.375Z,98095.38
2023-05-14T19:49:17.335Z,98089.53
2023-05-14T19:54:19.716Z,98077.06
2023-05-14T19:59:21.641Z,98075.53
2023-05-14T20:04:23.522Z,98073.19
2023-05-14T20:09:26.447Z,98066.19
2023-05-14T20:14:29.201Z,98057.56
2023-05-14T20:19:31.740Z,98060.72
2023-05-14T20:24:33.834Z,98056.03
2023-05-14T20:29:35.670Z,98053.25
2023-05-14T20:34:37.551Z,98044.69
2023-05-14T20:39:39.446Z,98044.28
2023-05-14T20:44:41.400Z,98037.25
2023-05-14T20:49:43.423Z,98032.56
2023-05-14T20:54:45.248Z,98027.91
2023-05-14T20:59:47.783Z,98022.44
2023-05-14T21:04:50.001Z,98032.66
2023-05-14T21:09:52.719Z,98024.84
2023-05-14T21:14:54.605Z,98020.16
2023-05-14T21:19:56.438Z,98009.25
2023-05-14T21:24:58.258Z,98004.56
2023-05-14T21:30:00.161Z,98002.97
2023-05-14T21:35:02.356Z,98001.44
2023-05-14T21:40:04.428Z,97999.09
2023-05-14T21:45:06.873Z,97995.97
2023-05-14T21:50:09.139Z,97978.81
2023-05-14T21:55:11.031Z,97981.53
2023-05-14T22:00:13.576Z,97969.47
2023-05-14T22:05:17.014Z,97967.88
2023-05-14T22:10:18.962Z,97959.28
2023-05-14T22:15:20.975Z,97964.75
2023-05-14T22:20:22.952Z,97967.88
2023-05-14T22:25:25.045Z,97951.09
2023-05-14T22:30:27.104Z,97960.06
2023-05-14T22:35:28.964Z,97947.94
2023-05-14T22:40:30.796Z,97948.75
2023-05-14T22:45:32.670Z,97939.41
2023-05-14T22:50:34.604Z,97937.81
2023-05-14T22:55:36.466Z,97923.41
2023-05-14T23:00:38.430Z,97913.25
2023-05-14T23:05:40.307Z,97903.91
2023-05-14T23:10:42.150Z,97900.78
2023-05-14T23:15:44.294Z,97892.97
2023-05-14T23:20:46.133Z,97892.16
2023-05-14T23:25:50.267Z,97885.91
2023-05-14T23:30:52.139Z,97881.22
2023-05-14T23:35:54.063Z,97871.09
2023-05-14T23:40:55.916Z,97856.66
2023-05-14T23:45:57.955Z,97858.63
2023-05-14T23:50:59.761Z,97843.00
2023-05-14T23:56:01.914Z,97837.53
